Townsend, GA (31331)

5:58 PM EDT on September 02, 2015 (GMT -0400)
Elim / Davenport Acres - Long County | | Change Station
CLOSE
Current Station
Personal Weather Station
Location: Ludowici, GA
Elevation: 89 ft
Nearby Weather Stations

Elev 89 ft 31.79 °N, 81.69 °W | Updated 10 seconds ago

Overcast
Overcast
80.3 °F
Feels Like 86 °F
N
0.0
Wind Variable Wind from SSE
Gusts 0.0 mph

Today
High -- | Low -- °F
--% Chance of Precip.
Yesterday
High -- | Low -- °F
Precip. -- in
7:01 AM 7:48 PM
Waning Gibbous, 77% visible
Pressure 30.01 in
Visibility 10.0 miles
Clouds Scattered Clouds 700 ft
Mostly Cloudy 8500 ft
Overcast 12000 ft
Heat Index 86 °F
Dew Point 75 °F
Humidity 85%
Rainfall 0.02 in
Snow Depth Not available.
UV 1 out of 12
Pollen 5.30 out of 12
Air Quality Not available.
Flu Activity Not available.
METAR KBQK 022135Z AUTO 10004KT 10SM TS SCT007 BKN085 OVC120 23/22 A3001 RMK AO1 LTG DSNT SE W AND NW
Pressure 30.01 in
Visibility 10.0 miles
Clouds Scattered Clouds 700 ft
Mostly Cloudy 8500 ft
Overcast 12000 ft
Heat Index 86 °F
Dew Point 75 °F
Humidity 85%
Rainfall 0.02 in
Snow Depth Not available.
UV 1 out of 12
Pollen 5.30 out of 12
Air Quality Not available.
Flu Activity Not available.
METAR KBQK 022135Z AUTO 10004KT 10SM TS SCT007 BKN085 OVC120 23/22 A3001 RMK AO1 LTG DSNT SE W AND NW

10-Day Weather Forecast

×

Almanac

Astronomy

Sep. 02, 2015 Rise Set
Actual Time
Civil Twilight
Nautical Twilight
Astronomical Twilight
Moon
Length of Visible Light
Length of Day
Tomorrow will be .
, % of the Moon is Illuminated

Today's Extremes

State Highs State Lows

Community

WunderPhotos

Upload Photos

1,851,818 photos uploaded!

WunderBlogs® & News

Nearby

Air Quality

  Air Quality AQ Index Pollutant
Not available.

Snow Depth

Station Depth Elevation

Earthquake Activity

City Distance Mag. Time & Date
Minimum magnitude displayed is 2.5.

Coastal Water Temperatures

Place Temperature

Stations

Nearby Weather Stations

Station Location Temp. Windchill Dew Point Humidity Wind Precip. Elev Updated Type